sensor_id;sensor_type;location;lat;lon;timestamp;temperature;humidity
666;DHT22;315;48.738;9.126;2023-12-22T00:02:18;6.70;99.90
666;DHT22;315;48.738;9.126;2023-12-22T00:04:43;6.80;99.90
666;DHT22;315;48.738;9.126;2023-12-22T00:07:09;6.90;99.90
666;DHT22;315;48.738;9.126;2023-12-22T00:09:34;6.90;99.90
666;DHT22;315;48.738;9.126;2023-12-22T00:12:00;7.00;99.90
666;DHT22;315;48.738;9.126;2023-12-22T00:14:26;7.00;99.90
666;DHT22;315;48.738;9.126;2023-12-22T00:16:51;7.10;99.90
666;DHT22;315;48.738;9.126;2023-12-22T00:19:16;7.10;99.90
666;DHT22;315;48.738;9.126;2023-12-22T00:21:42;7.10;99.90
666;DHT22;315;48.738;9.126;2023-12-22T00:24:07;7.20;99.90
666;DHT22;315;48.738;9.126;2023-12-22T00:26:33;7.30;99.90
666;DHT22;315;48.738;9.126;2023-12-22T00:28:58;7.30;99.90
666;DHT22;315;48.738;9.126;2023-12-22T00:31:24;7.30;99.90
666;DHT22;315;48.738;9.126;2023-12-22T00:33:49;7.30;99.90
666;DHT22;315;48.738;9.126;2023-12-22T00:36:15;7.30;99.90
666;DHT22;315;48.738;9.126;2023-12-22T00:38:43;7.30;99.90
666;DHT22;315;48.738;9.126;2023-12-22T00:41:10;7.30;99.90
666;DHT22;315;48.738;9.126;2023-12-22T00:43:35;7.20;99.90
666;DHT22;315;48.738;9.126;2023-12-22T00:46:01;7.20;99.90
666;DHT22;315;48.738;9.126;2023-12-22T00:48:27;7.30;99.90
666;DHT22;315;48.738;9.126;2023-12-22T00:50:52;7.30;99.90
666;DHT22;315;48.738;9.126;2023-12-22T00:53:18;7.30;99.90
666;DHT22;315;48.738;9.126;2023-12-22T00:55:43;7.30;99.90
666;DHT22;315;48.738;9.126;2023-12-22T00:58:09;7.30;99.90
666;DHT22;315;48.738;9.126;2023-12-22T01:00:34;7.20;99.90
666;DHT22;315;48.738;9.126;2023-12-22T01:03:00;7.20;99.90
666;DHT22;315;48.738;9.126;2023-12-22T01:05:25;7.10;99.90
666;DHT22;315;48.738;9.126;2023-12-22T01:07:51;7.10;99.90
666;DHT22;315;48.738;9.126;2023-12-22T01:10:16;7.10;99.90
666;DHT22;315;48.738;9.126;2023-12-22T01:12:42;7.20;99.90
666;DHT22;315;48.738;9.126;2023-12-22T01:15:08;7.10;99.90
666;DHT22;315;48.738;9.126;2023-12-22T01:17:33;7.10;99.90
666;DHT22;315;48.738;9.126;2023-12-22T01:19:59;7.10;99.90
666;DHT22;315;48.738;9.126;2023-12-22T01:22:24;7.10;99.90
666;DHT22;315;48.738;9.126;2023-12-22T01:24:50;7.10;99.90
666;DHT22;315;48.738;9.126;2023-12-22T01:27:15;7.10;99.90
666;DHT22;315;48.738;9.126;2023-12-22T01:29:41;7.20;99.90
666;DHT22;315;48.738;9.126;2023-12-22T01:32:06;7.20;99.90
666;DHT22;315;48.738;9.126;2023-12-22T01:34:32;7.20;99.90
666;DHT22;315;48.738;9.126;2023-12-22T01:36:57;7.20;99.90
666;DHT22;315;48.738;9.126;2023-12-22T01:39:23;7.20;99.90
666;DHT22;315;48.738;9.126;2023-12-22T01:41:48;7.20;99.90
666;DHT22;315;48.738;9.126;2023-12-22T01:44:14;7.20;99.90
666;DHT22;315;48.738;9.126;2023-12-22T01:46:39;7.20;99.90
666;DHT22;315;48.738;9.126;2023-12-22T01:49:06;7.20;99.90
666;DHT22;315;48.738;9.126;2023-12-22T01:51:33;7.30;99.90
666;DHT22;315;48.738;9.126;2023-12-22T01:54:00;7.30;99.90
666;DHT22;315;48.738;9.126;2023-12-22T01:56:26;7.30;99.90
666;DHT22;315;48.738;9.126;2023-12-22T01:58:58;7.30;99.90
666;DHT22;315;48.738;9.126;2023-12-22T02:01:24;7.30;99.90
666;DHT22;315;48.738;9.126;2023-12-22T02:03:51;7.30;99.90
666;DHT22;315;48.738;9.126;2023-12-22T02:06:21;7.30;99.90
666;DHT22;315;48.738;9.126;2023-12-22T02:08:47;7.30;99.90
666;DHT22;315;48.738;9.126;2023-12-22T02:11:16;7.30;99.90
666;DHT22;315;48.738;9.126;2023-12-22T02:13:45;7.30;99.90
666;DHT22;315;48.738;9.126;2023-12-22T02:16:23;7.30;99.90
666;DHT22;315;48.738;9.126;2023-12-22T02:18:53;7.20;99.90
666;DHT22;315;48.738;9.126;2023-12-22T02:21:20;7.20;99.90
666;DHT22;315;48.738;9.126;2023-12-22T02:23:47;7.20;99.90
666;DHT22;315;48.738;9.126;2023-12-22T02:26:31;7.20;99.90
666;DHT22;315;48.738;9.126;2023-12-22T02:28:59;7.20;99.90
666;DHT22;315;48.738;9.126;2023-12-22T02:31:42;7.20;99.90
666;DHT22;315;48.738;9.126;2023-12-22T02:34:14;7.10;99.90
666;DHT22;315;48.738;9.126;2023-12-22T02:36:43;7.10;99.90
666;DHT22;315;48.738;9.126;2023-12-22T02:39:10;7.10;99.90
666;DHT22;315;48.738;9.126;2023-12-22T02:41:36;7.20;99.90
666;DHT22;315;48.738;9.126;2023-12-22T02:44:03;7.20;99.90
666;DHT22;315;48.738;9.126;2023-12-22T02:46:28;7.20;99.90
666;DHT22;315;48.738;9.126;2023-12-22T02:48:54;7.20;99.90
666;DHT22;315;48.738;9.126;2023-12-22T02:51:19;7.30;99.90
666;DHT22;315;48.738;9.126;2023-12-22T02:53:45;7.30;99.90
666;DHT22;315;48.738;9.126;2023-12-22T02:56:10;7.30;99.90
666;DHT22;315;48.738;9.126;2023-12-22T02:58:36;7.30;99.90
666;DHT22;315;48.738;9.126;2023-12-22T03:01:01;7.30;99.90
666;DHT22;315;48.738;9.126;2023-12-22T03:03:27;7.30;99.90
666;DHT22;315;48.738;9.126;2023-12-22T03:05:52;7.40;99.90
666;DHT22;315;48.738;9.126;2023-12-22T03:08:18;7.40;99.90
666;DHT22;315;48.738;9.126;2023-12-22T03:10:43;7.40;99.90
666;DHT22;315;48.738;9.126;2023-12-22T03:13:09;7.40;99.90
666;DHT22;315;48.738;9.126;2023-12-22T03:15:34;7.30;99.90
666;DHT22;315;48.738;9.126;2023-12-22T03:18:00;7.40;99.90
666;DHT22;315;48.738;9.126;2023-12-22T03:20:25;7.40;99.90
666;DHT22;315;48.738;9.126;2023-12-22T03:22:51;7.50;99.90
666;DHT22;315;48.738;9.126;2023-12-22T03:25:16;7.50;99.90
666;DHT22;315;48.738;9.126;2023-12-22T03:27:42;7.50;99.90
666;DHT22;315;48.738;9.126;2023-12-22T03:30:07;7.50;99.90
666;DHT22;315;48.738;9.126;2023-12-22T03:32:33;7.50;99.90
666;DHT22;315;48.738;9.126;2023-12-22T03:34:58;7.50;99.90
666;DHT22;315;48.738;9.126;2023-12-22T03:37:24;7.50;99.90
666;DHT22;315;48.738;9.126;2023-12-22T03:39:49;7.50;99.90
666;DHT22;315;48.738;9.126;2023-12-22T03:42:15;7.50;99.90
666;DHT22;315;48.738;9.126;2023-12-22T03:44:40;7.50;99.90
666;DHT22;315;48.738;9.126;2023-12-22T03:47:06;7.50;99.90
666;DHT22;315;48.738;9.126;2023-12-22T03:49:32;7.60;99.90
666;DHT22;315;48.738;9.126;2023-12-22T03:51:58;7.60;99.90
666;DHT22;315;48.738;9.126;2023-12-22T03:54:23;7.60;99.90
666;DHT22;315;48.738;9.126;2023-12-22T03:56:49;7.60;99.90
666;DHT22;315;48.738;9.126;2023-12-22T03:59:14;7.50;99.90
666;DHT22;315;48.738;9.126;2023-12-22T04:01:43;7.50;99.90
666;DHT22;315;48.738;9.126;2023-12-22T04:04:09;7.30;99.90
666;DHT22;315;48.738;9.126;2023-12-22T04:06:38;7.20;99.90
666;DHT22;315;48.738;9.126;2023-12-22T04:09:04;7.20;99.90
666;DHT22;315;48.738;9.126;2023-12-22T04:11:30;7.10;99.90
666;DHT22;315;48.738;9.126;2023-12-22T04:13:55;7.00;99.90
666;DHT22;315;48.738;9.126;2023-12-22T04:16:21;6.90;99.90
666;DHT22;315;48.738;9.126;2023-12-22T04:18:46;6.80;99.90
666;DHT22;315;48.738;9.126;2023-12-22T04:21:12;6.80;99.90
666;DHT22;315;48.738;9.126;2023-12-22T04:23:37;6.70;99.90
666;DHT22;315;48.738;9.126;2023-12-22T04:26:03;6.70;99.90
666;DHT22;315;48.738;9.126;2023-12-22T04:28:28;6.70;99.90
666;DHT22;315;48.738;9.126;2023-12-22T04:30:54;6.60;99.90
666;DHT22;315;48.738;9.126;2023-12-22T04:33:19;6.60;99.90
666;DHT22;315;48.738;9.126;2023-12-22T04:35:45;6.60;99.90
666;DHT22;315;48.738;9.126;2023-12-22T04:38:10;6.60;99.90
666;DHT22;315;48.738;9.126;2023-12-22T04:40:36;6.60;99.90
666;DHT22;315;48.738;9.126;2023-12-22T04:43:01;6.60;99.90
666;DHT22;315;48.738;9.126;2023-12-22T04:45:27;6.60;99.90
666;DHT22;315;48.738;9.126;2023-12-22T04:47:52;6.70;99.90
666;DHT22;315;48.738;9.126;2023-12-22T04:50:18;6.60;99.90
666;DHT22;315;48.738;9.126;2023-12-22T04:52:43;6.60;99.90
666;DHT22;315;48.738;9.126;2023-12-22T04:55:09;6.60;99.90
666;DHT22;315;48.738;9.126;2023-12-22T04:57:35;6.60;99.90
666;DHT22;315;48.738;9.126;2023-12-22T05:00:00;6.60;99.90
666;DHT22;315;48.738;9.126;2023-12-22T05:02:25;6.70;99.90
666;DHT22;315;48.738;9.126;2023-12-22T05:04:51;6.60;99.90
666;DHT22;315;48.738;9.126;2023-12-22T05:07:16;6.60;99.90
666;DHT22;315;48.738;9.126;2023-12-22T05:09:42;6.60;99.90
666;DHT22;315;48.738;9.126;2023-12-22T05:12:08;6.80;99.90
666;DHT22;315;48.738;9.126;2023-12-22T05:14:33;6.80;99.90
666;DHT22;315;48.738;9.126;2023-12-22T05:16:59;6.90;99.90
666;DHT22;315;48.738;9.126;2023-12-22T05:19:24;6.80;99.90
666;DHT22;315;48.738;9.126;2023-12-22T05:21:50;6.80;99.90
666;DHT22;315;48.738;9.126;2023-12-22T05:24:18;6.80;99.90
666;DHT22;315;48.738;9.126;2023-12-22T05:26:43;6.90;99.90
666;DHT22;315;48.738;9.126;2023-12-22T05:29:08;6.90;99.90
666;DHT22;315;48.738;9.126;2023-12-22T05:31:34;7.00;99.90
666;DHT22;315;48.738;9.126;2023-12-22T05:34:00;7.10;99.90
666;DHT22;315;48.738;9.126;2023-12-22T05:36:25;7.10;99.90
666;DHT22;315;48.738;9.126;2023-12-22T05:38:51;7.00;99.90
666;DHT22;315;48.738;9.126;2023-12-22T05:41:16;7.00;99.90
666;DHT22;315;48.738;9.126;2023-12-22T05:43:42;7.00;99.90
666;DHT22;315;48.738;9.126;2023-12-22T05:46:08;7.00;99.90
666;DHT22;315;48.738;9.126;2023-12-22T05:48:34;7.00;99.90
666;DHT22;315;48.738;9.126;2023-12-22T05:51:00;7.00;99.90
666;DHT22;315;48.738;9.126;2023-12-22T05:53:28;7.00;99.90
666;DHT22;315;48.738;9.126;2023-12-22T05:55:54;7.10;99.90
666;DHT22;315;48.738;9.126;2023-12-22T05:58:19;7.20;99.90
666;DHT22;315;48.738;9.126;2023-12-22T06:00:45;7.30;99.90
666;DHT22;315;48.738;9.126;2023-12-22T06:03:10;7.30;99.90
666;DHT22;315;48.738;9.126;2023-12-22T06:05:36;7.30;99.90
666;DHT22;315;48.738;9.126;2023-12-22T06:08:01;7.30;99.90
666;DHT22;315;48.738;9.126;2023-12-22T06:10:27;7.30;99.90
666;DHT22;315;48.738;9.126;2023-12-22T06:12:52;7.30;99.90
666;DHT22;315;48.738;9.126;2023-12-22T06:15:18;7.30;99.90
666;DHT22;315;48.738;9.126;2023-12-22T06:17:43;7.40;99.90
666;DHT22;315;48.738;9.126;2023-12-22T06:20:09;7.40;99.90
666;DHT22;315;48.738;9.126;2023-12-22T06:22:35;7.40;99.90
666;DHT22;315;48.738;9.126;2023-12-22T06:25:01;7.50;99.90
666;DHT22;315;48.738;9.126;2023-12-22T06:27:28;7.50;99.90
666;DHT22;315;48.738;9.126;2023-12-22T06:29:53;7.50;99.90
666;DHT22;315;48.738;9.126;2023-12-22T06:32:21;7.60;99.90
666;DHT22;315;48.738;9.126;2023-12-22T06:34:46;7.60;99.90
666;DHT22;315;48.738;9.126;2023-12-22T06:37:12;7.60;99.90
666;DHT22;315;48.738;9.126;2023-12-22T06:39:37;7.60;99.90
666;DHT22;315;48.738;9.126;2023-12-22T06:42:03;7.60;99.90
666;DHT22;315;48.738;9.126;2023-12-22T06:44:30;7.60;99.90
666;DHT22;315;48.738;9.126;2023-12-22T06:46:57;7.60;99.90
666;DHT22;315;48.738;9.126;2023-12-22T06:49:22;7.60;99.90
666;DHT22;315;48.738;9.126;2023-12-22T06:51:48;7.60;99.90
666;DHT22;315;48.738;9.126;2023-12-22T06:54:13;7.70;99.90
666;DHT22;315;48.738;9.126;2023-12-22T06:56:39;7.60;99.90
666;DHT22;315;48.738;9.126;2023-12-22T06:59:06;7.60;99.90
666;DHT22;315;48.738;9.126;2023-12-22T07:01:33;7.70;99.90
666;DHT22;315;48.738;9.126;2023-12-22T07:03:59;7.60;99.90
666;DHT22;315;48.738;9.126;2023-12-22T07:06:26;7.50;99.90
666;DHT22;315;48.738;9.126;2023-12-22T07:11:41;7.20;99.90
666;DHT22;315;48.738;9.126;2023-12-22T07:14:07;7.10;99.90
666;DHT22;315;48.738;9.126;2023-12-22T07:16:34;7.00;99.90
666;DHT22;315;48.738;9.126;2023-12-22T07:18:59;7.00;99.90
666;DHT22;315;48.738;9.126;2023-12-22T07:21:26;7.10;99.90
666;DHT22;315;48.738;9.126;2023-12-22T07:23:51;7.10;99.90
666;DHT22;315;48.738;9.126;2023-12-22T07:26:17;7.10;99.90
666;DHT22;315;48.738;9.126;2023-12-22T07:28:42;7.10;99.90
666;DHT22;315;48.738;9.126;2023-12-22T07:31:08;7.10;99.90
666;DHT22;315;48.738;9.126;2023-12-22T07:33:33;7.20;99.90
666;DHT22;315;48.738;9.126;2023-12-22T07:35:59;7.20;99.90
666;DHT22;315;48.738;9.126;2023-12-22T07:38:24;7.20;99.90
666;DHT22;315;48.738;9.126;2023-12-22T07:40:50;7.20;99.90
666;DHT22;315;48.738;9.126;2023-12-22T07:43:16;7.20;99.90
666;DHT22;315;48.738;9.126;2023-12-22T07:45:41;7.10;99.90
666;DHT22;315;48.738;9.126;2023-12-22T07:48:07;7.00;99.90
666;DHT22;315;48.738;9.126;2023-12-22T07:50:33;6.90;99.90
666;DHT22;315;48.738;9.126;2023-12-22T07:52:58;6.80;99.90
666;DHT22;315;48.738;9.126;2023-12-22T07:55:24;6.80;99.90
666;DHT22;315;48.738;9.126;2023-12-22T07:57:50;6.70;99.90
666;DHT22;315;48.738;9.126;2023-12-22T08:00:16;6.60;99.90
666;DHT22;315;48.738;9.126;2023-12-22T08:02:42;6.60;99.90
666;DHT22;315;48.738;9.126;2023-12-22T08:05:08;6.50;99.90
666;DHT22;315;48.738;9.126;2023-12-22T08:07:33;6.50;99.90
666;DHT22;315;48.738;9.126;2023-12-22T08:09:59;6.50;99.90
666;DHT22;315;48.738;9.126;2023-12-22T08:12:24;6.50;99.90
666;DHT22;315;48.738;9.126;2023-12-22T08:14:50;6.50;99.90
666;DHT22;315;48.738;9.126;2023-12-22T08:17:15;6.50;99.90
666;DHT22;315;48.738;9.126;2023-12-22T08:19:41;6.70;99.90
666;DHT22;315;48.738;9.126;2023-12-22T08:22:10;6.80;99.90
666;DHT22;315;48.738;9.126;2023-12-22T08:24:36;6.80;99.90
666;DHT22;315;48.738;9.126;2023-12-22T08:27:01;6.80;99.90
666;DHT22;315;48.738;9.126;2023-12-22T08:29:27;6.80;99.90
666;DHT22;315;48.738;9.126;2023-12-22T08:31:52;6.80;99.90
666;DHT22;315;48.738;9.126;2023-12-22T08:34:19;6.80;99.90
666;DHT22;315;48.738;9.126;2023-12-22T08:36:44;6.80;99.90
666;DHT22;315;48.738;9.126;2023-12-22T08:39:10;6.80;99.90
666;DHT22;315;48.738;9.126;2023-12-22T08:41:35;6.80;99.90
666;DHT22;315;48.738;9.126;2023-12-22T08:44:05;6.80;99.90
666;DHT22;315;48.738;9.126;2023-12-22T08:46:30;6.80;99.90
666;DHT22;315;48.738;9.126;2023-12-22T08:48:56;6.90;99.90
666;DHT22;315;48.738;9.126;2023-12-22T08:51:22;6.90;99.90
666;DHT22;315;48.738;9.126;2023-12-22T08:53:48;6.90;99.90
666;DHT22;315;48.738;9.126;2023-12-22T08:56:15;6.90;99.90
666;DHT22;315;48.738;9.126;2023-12-22T08:58:42;6.90;99.90
666;DHT22;315;48.738;9.126;2023-12-22T09:01:13;6.90;99.90
666;DHT22;315;48.738;9.126;2023-12-22T09:03:39;6.90;99.90
666;DHT22;315;48.738;9.126;2023-12-22T09:06:08;6.90;99.90
666;DHT22;315;48.738;9.126;2023-12-22T09:08:34;6.90;99.90
666;DHT22;315;48.738;9.126;2023-12-22T09:11:00;6.90;99.90
666;DHT22;315;48.738;9.126;2023-12-22T09:13:25;6.90;99.90
666;DHT22;315;48.738;9.126;2023-12-22T09:15:51;7.00;99.90
666;DHT22;315;48.738;9.126;2023-12-22T09:18:16;7.00;99.90
666;DHT22;315;48.738;9.126;2023-12-22T09:20:42;7.00;99.90
666;DHT22;315;48.738;9.126;2023-12-22T09:23:08;7.00;99.90
666;DHT22;315;48.738;9.126;2023-12-22T09:25:35;7.20;99.90
666;DHT22;315;48.738;9.126;2023-12-22T09:28:01;7.20;99.90
666;DHT22;315;48.738;9.126;2023-12-22T09:30:27;7.20;99.90
666;DHT22;315;48.738;9.126;2023-12-22T09:32:52;7.20;99.90
666;DHT22;315;48.738;9.126;2023-12-22T09:35:18;7.30;99.90
666;DHT22;315;48.738;9.126;2023-12-22T09:37:43;7.40;99.90
666;DHT22;315;48.738;9.126;2023-12-22T09:40:09;7.40;99.90
666;DHT22;315;48.738;9.126;2023-12-22T09:42:37;7.50;99.90
666;DHT22;315;48.738;9.126;2023-12-22T09:45:04;7.60;99.90
666;DHT22;315;48.738;9.126;2023-12-22T09:47:32;7.60;99.90
666;DHT22;315;48.738;9.126;2023-12-22T09:50:00;7.70;99.90
666;DHT22;315;48.738;9.126;2023-12-22T09:52:27;7.60;99.90
666;DHT22;315;48.738;9.126;2023-12-22T09:54:54;7.70;99.90
666;DHT22;315;48.738;9.126;2023-12-22T09:57:22;7.70;99.90
666;DHT22;315;48.738;9.126;2023-12-22T09:59:51;7.80;99.90
666;DHT22;315;48.738;9.126;2023-12-22T10:02:17;7.70;99.90
666;DHT22;315;48.738;9.126;2023-12-22T10:04:43;7.80;99.90
666;DHT22;315;48.738;9.126;2023-12-22T10:07:09;7.80;99.90
666;DHT22;315;48.738;9.126;2023-12-22T10:09:39;7.80;99.90
666;DHT22;315;48.738;9.126;2023-12-22T10:12:06;7.80;99.90
666;DHT22;315;48.738;9.126;2023-12-22T10:14:35;7.80;99.90
666;DHT22;315;48.738;9.126;2023-12-22T10:17:04;7.90;99.90
666;DHT22;315;48.738;9.126;2023-12-22T10:19:29;7.90;99.90
666;DHT22;315;48.738;9.126;2023-12-22T10:21:56;8.00;99.90
666;DHT22;315;48.738;9.126;2023-12-22T10:24:38;8.00;99.90
666;DHT22;315;48.738;9.126;2023-12-22T10:27:13;8.00;99.90
666;DHT22;315;48.738;9.126;2023-12-22T10:29:40;8.00;99.90
666;DHT22;315;48.738;9.126;2023-12-22T10:32:06;8.10;99.90
666;DHT22;315;48.738;9.126;2023-12-22T10:34:32;8.10;99.90
666;DHT22;315;48.738;9.126;2023-12-22T10:37:01;8.00;99.90
666;DHT22;315;48.738;9.126;2023-12-22T10:39:28;8.00;99.90
666;DHT22;315;48.738;9.126;2023-12-22T10:41:58;7.90;99.90
666;DHT22;315;48.738;9.126;2023-12-22T10:44:27;7.80;99.90
666;DHT22;315;48.738;9.126;2023-12-22T10:46:54;7.80;99.90
666;DHT22;315;48.738;9.126;2023-12-22T10:49:21;7.70;99.90
666;DHT22;315;48.738;9.126;2023-12-22T10:51:47;7.70;99.90
666;DHT22;315;48.738;9.126;2023-12-22T10:54:13;7.70;99.90
666;DHT22;315;48.738;9.126;2023-12-22T10:56:41;7.70;99.90
666;DHT22;315;48.738;9.126;2023-12-22T10:59:08;7.70;99.90
666;DHT22;315;48.738;9.126;2023-12-22T11:01:36;7.70;99.90
666;DHT22;315;48.738;9.126;2023-12-22T11:04:06;7.70;99.90
666;DHT22;315;48.738;9.126;2023-12-22T11:06:37;7.70;99.90
666;DHT22;315;48.738;9.126;2023-12-22T11:09:08;7.70;99.90
666;DHT22;315;48.738;9.126;2023-12-22T11:11:38;7.70;99.90
666;DHT22;315;48.738;9.126;2023-12-22T11:14:05;7.60;99.90
666;DHT22;315;48.738;9.126;2023-12-22T11:16:33;7.60;99.90
666;DHT22;315;48.738;9.126;2023-12-22T11:19:00;7.60;99.90
666;DHT22;315;48.738;9.126;2023-12-22T11:21:26;7.50;99.90
666;DHT22;315;48.738;9.126;2023-12-22T11:23:53;7.50;99.90
666;DHT22;315;48.738;9.126;2023-12-22T11:26:21;7.40;99.90
666;DHT22;315;48.738;9.126;2023-12-22T11:28:48;7.40;99.90
666;DHT22;315;48.738;9.126;2023-12-22T11:31:14;7.30;99.90
666;DHT22;315;48.738;9.126;2023-12-22T11:33:44;7.30;99.90
666;DHT22;315;48.738;9.126;2023-12-22T11:36:12;7.30;99.90
666;DHT22;315;48.738;9.126;2023-12-22T11:38:41;7.30;99.90
666;DHT22;315;48.738;9.126;2023-12-22T11:41:12;7.20;99.90
666;DHT22;315;48.738;9.126;2023-12-22T11:43:40;7.20;99.90
666;DHT22;315;48.738;9.126;2023-12-22T11:46:06;7.20;99.90
666;DHT22;315;48.738;9.126;2023-12-22T11:48:32;7.10;99.90
666;DHT22;315;48.738;9.126;2023-12-22T11:50:58;7.10;99.90
666;DHT22;315;48.738;9.126;2023-12-22T11:53:25;7.10;99.90
666;DHT22;315;48.738;9.126;2023-12-22T11:56:03;7.10;99.90
666;DHT22;315;48.738;9.126;2023-12-22T11:58:46;7.00;99.90
666;DHT22;315;48.738;9.126;2023-12-22T12:01:22;7.00;99.90
666;DHT22;315;48.738;9.126;2023-12-22T12:03:53;7.00;99.90
666;DHT22;315;48.738;9.126;2023-12-22T12:08:57;7.00;99.90
666;DHT22;315;48.738;9.126;2023-12-22T12:11:23;7.00;99.90
666;DHT22;315;48.738;9.126;2023-12-22T12:13:50;7.00;99.90
666;DHT22;315;48.738;9.126;2023-12-22T12:16:21;7.00;99.90
666;DHT22;315;48.738;9.126;2023-12-22T12:18:47;7.00;99.90
666;DHT22;315;48.738;9.126;2023-12-22T12:21:12;7.00;99.90
666;DHT22;315;48.738;9.126;2023-12-22T12:23:38;7.00;99.90
666;DHT22;315;48.738;9.126;2023-12-22T12:26:06;7.00;99.90
666;DHT22;315;48.738;9.126;2023-12-22T12:28:34;7.00;99.90
666;DHT22;315;48.738;9.126;2023-12-22T12:31:04;7.00;99.90
666;DHT22;315;48.738;9.126;2023-12-22T12:33:30;7.00;99.90
666;DHT22;315;48.738;9.126;2023-12-22T12:35:57;7.00;99.90
666;DHT22;315;48.738;9.126;2023-12-22T12:41:12;7.00;99.90
666;DHT22;315;48.738;9.126;2023-12-22T12:43:43;7.00;99.90
666;DHT22;315;48.738;9.126;2023-12-22T12:46:09;7.00;99.90
666;DHT22;315;48.738;9.126;2023-12-22T12:48:35;7.00;99.90
666;DHT22;315;48.738;9.126;2023-12-22T12:51:07;7.00;99.90
666;DHT22;315;48.738;9.126;2023-12-22T12:53:33;7.00;99.90
666;DHT22;315;48.738;9.126;2023-12-22T12:56:00;7.00;99.90
666;DHT22;315;48.738;9.126;2023-12-22T12:58:32;7.00;99.90
666;DHT22;315;48.738;9.126;2023-12-22T13:01:08;7.00;99.90
666;DHT22;315;48.738;9.126;2023-12-22T13:03:53;7.10;99.90
666;DHT22;315;48.738;9.126;2023-12-22T13:06:19;7.10;99.90
666;DHT22;315;48.738;9.126;2023-12-22T13:08:51;7.10;99.90
666;DHT22;315;48.738;9.126;2023-12-22T13:11:21;7.10;99.90
666;DHT22;315;48.738;9.126;2023-12-22T13:13:48;7.10;99.90
666;DHT22;315;48.738;9.126;2023-12-22T13:16:20;7.20;99.90
666;DHT22;315;48.738;9.126;2023-12-22T13:18:46;7.20;99.90
666;DHT22;315;48.738;9.126;2023-12-22T13:21:12;7.30;99.90
666;DHT22;315;48.738;9.126;2023-12-22T13:23:38;7.30;99.90
666;DHT22;315;48.738;9.126;2023-12-22T13:26:04;7.30;99.90
666;DHT22;315;48.738;9.126;2023-12-22T13:28:29;7.40;99.90
666;DHT22;315;48.738;9.126;2023-12-22T13:30:55;7.40;99.90
666;DHT22;315;48.738;9.126;2023-12-22T13:33:21;7.50;99.90
666;DHT22;315;48.738;9.126;2023-12-22T13:35:47;7.60;99.90
666;DHT22;315;48.738;9.126;2023-12-22T13:38:13;7.60;99.90
666;DHT22;315;48.738;9.126;2023-12-22T13:40:44;7.80;99.90
666;DHT22;315;48.738;9.126;2023-12-22T13:43:10;7.80;99.90
666;DHT22;315;48.738;9.126;2023-12-22T13:45:36;7.90;99.90
666;DHT22;315;48.738;9.126;2023-12-22T13:48:01;8.00;99.90
666;DHT22;315;48.738;9.126;2023-12-22T13:50:27;8.00;99.90
666;DHT22;315;48.738;9.126;2023-12-22T13:52:53;8.10;99.90
666;DHT22;315;48.738;9.126;2023-12-22T13:55:19;8.10;99.90
666;DHT22;315;48.738;9.126;2023-12-22T13:57:47;8.10;99.90
666;DHT22;315;48.738;9.126;2023-12-22T14:02:48;8.20;99.90
666;DHT22;315;48.738;9.126;2023-12-22T14:05:18;8.30;99.90
666;DHT22;315;48.738;9.126;2023-12-22T14:07:44;8.30;99.90
666;DHT22;315;48.738;9.126;2023-12-22T14:10:10;8.30;99.90
666;DHT22;315;48.738;9.126;2023-12-22T14:12:37;8.30;99.90
666;DHT22;315;48.738;9.126;2023-12-22T14:15:09;8.30;99.90
666;DHT22;315;48.738;9.126;2023-12-22T14:17:35;8.30;99.90
666;DHT22;315;48.738;9.126;2023-12-22T14:20:02;8.30;99.90
666;DHT22;315;48.738;9.126;2023-12-22T14:22:30;8.30;99.90
666;DHT22;315;48.738;9.126;2023-12-22T14:24:55;8.40;99.90
666;DHT22;315;48.738;9.126;2023-12-22T14:27:23;8.40;99.90
666;DHT22;315;48.738;9.126;2023-12-22T14:29:49;8.40;99.90
666;DHT22;315;48.738;9.126;2023-12-22T14:32:15;8.50;99.90
666;DHT22;315;48.738;9.126;2023-12-22T14:34:47;8.50;99.90
666;DHT22;315;48.738;9.126;2023-12-22T14:37:12;8.50;99.90
666;DHT22;315;48.738;9.126;2023-12-22T14:39:39;8.50;99.90
666;DHT22;315;48.738;9.126;2023-12-22T14:42:05;8.60;99.90
666;DHT22;315;48.738;9.126;2023-12-22T14:44:30;8.60;99.90
666;DHT22;315;48.738;9.126;2023-12-22T14:46:56;8.60;99.90
666;DHT22;315;48.738;9.126;2023-12-22T14:49:22;8.70;99.90
666;DHT22;315;48.738;9.126;2023-12-22T14:51:47;8.70;99.90
666;DHT22;315;48.738;9.126;2023-12-22T14:54:21;8.80;99.90
666;DHT22;315;48.738;9.126;2023-12-22T14:56:47;8.90;99.90
666;DHT22;315;48.738;9.126;2023-12-22T14:59:14;8.90;99.90
666;DHT22;315;48.738;9.126;2023-12-22T15:01:43;8.90;99.90
666;DHT22;315;48.738;9.126;2023-12-22T15:04:09;8.90;99.90
666;DHT22;315;48.738;9.126;2023-12-22T15:06:38;8.90;99.90
666;DHT22;315;48.738;9.126;2023-12-22T15:09:09;9.00;99.90
666;DHT22;315;48.738;9.126;2023-12-22T15:11:41;8.90;99.90
666;DHT22;315;48.738;9.126;2023-12-22T15:14:07;8.90;99.90
666;DHT22;315;48.738;9.126;2023-12-22T15:16:32;9.00;99.90
666;DHT22;315;48.738;9.126;2023-12-22T15:18:58;9.00;99.90
666;DHT22;315;48.738;9.126;2023-12-22T15:21:24;9.00;99.90
666;DHT22;315;48.738;9.126;2023-12-22T15:23:50;8.90;99.90
666;DHT22;315;48.738;9.126;2023-12-22T15:26:23;8.90;99.90
666;DHT22;315;48.738;9.126;2023-12-22T15:28:49;8.80;99.90
666;DHT22;315;48.738;9.126;2023-12-22T15:31:15;8.80;99.90
666;DHT22;315;48.738;9.126;2023-12-22T15:33:40;8.80;99.90
666;DHT22;315;48.738;9.126;2023-12-22T15:36:06;8.80;99.90
666;DHT22;315;48.738;9.126;2023-12-22T15:38:32;8.80;99.90
666;DHT22;315;48.738;9.126;2023-12-22T15:41:01;8.80;99.90
666;DHT22;315;48.738;9.126;2023-12-22T15:43:27;8.80;99.90
666;DHT22;315;48.738;9.126;2023-12-22T15:45:53;8.90;99.90
666;DHT22;315;48.738;9.126;2023-12-22T15:48:18;8.90;99.90
666;DHT22;315;48.738;9.126;2023-12-22T15:50:44;8.90;99.90
666;DHT22;315;48.738;9.126;2023-12-22T15:53:11;8.90;99.90
666;DHT22;315;48.738;9.126;2023-12-22T15:55:37;9.00;99.90
666;DHT22;315;48.738;9.126;2023-12-22T15:58:03;9.00;99.90
666;DHT22;315;48.738;9.126;2023-12-22T16:00:28;9.00;99.90
666;DHT22;315;48.738;9.126;2023-12-22T16:02:54;9.00;99.90
666;DHT22;315;48.738;9.126;2023-12-22T16:05:19;9.00;99.90
666;DHT22;315;48.738;9.126;2023-12-22T16:07:45;9.10;99.90
666;DHT22;315;48.738;9.126;2023-12-22T16:10:11;9.10;99.90
666;DHT22;315;48.738;9.126;2023-12-22T16:12:37;9.10;99.90
666;DHT22;315;48.738;9.126;2023-12-22T16:15:03;9.10;99.90
666;DHT22;315;48.738;9.126;2023-12-22T16:17:32;9.10;99.90
666;DHT22;315;48.738;9.126;2023-12-22T16:19:58;9.10;99.90
666;DHT22;315;48.738;9.126;2023-12-22T16:22:23;9.10;99.90
666;DHT22;315;48.738;9.126;2023-12-22T16:24:49;9.10;99.90
666;DHT22;315;48.738;9.126;2023-12-22T16:27:14;9.10;99.90
666;DHT22;315;48.738;9.126;2023-12-22T16:29:40;9.10;99.90
666;DHT22;315;48.738;9.126;2023-12-22T16:32:06;9.10;99.90
666;DHT22;315;48.738;9.126;2023-12-22T16:34:31;9.10;99.90
666;DHT22;315;48.738;9.126;2023-12-22T16:36:57;9.10;99.90
666;DHT22;315;48.738;9.126;2023-12-22T16:39:23;9.20;99.90
666;DHT22;315;48.738;9.126;2023-12-22T16:41:49;9.10;99.90
666;DHT22;315;48.738;9.126;2023-12-22T16:44:15;9.10;99.90
666;DHT22;315;48.738;9.126;2023-12-22T16:46:43;9.10;99.90
666;DHT22;315;48.738;9.126;2023-12-22T16:49:09;9.20;99.90
666;DHT22;315;48.738;9.126;2023-12-22T16:51:34;9.20;99.90
666;DHT22;315;48.738;9.126;2023-12-22T16:54:00;9.20;99.90
666;DHT22;315;48.738;9.126;2023-12-22T16:56:27;9.20;99.90
666;DHT22;315;48.738;9.126;2023-12-22T16:58:53;9.20;99.90